sensor_id;sensor_type;location;lat;lon;timestamp;P1;durP1;ratioP1;P2;durP2;ratioP2
48203;SDS011;33994;50.998;5.864;2023-11-21T00:00:27;33.50;;;17.75;;
48203;SDS011;33994;50.998;5.864;2023-11-21T00:03:30;35.53;;;17.45;;
48203;SDS011;33994;50.998;5.864;2023-11-21T00:06:34;39.40;;;16.38;;
48203;SDS011;33994;50.998;5.864;2023-11-21T00:09:37;33.30;;;16.65;;
48203;SDS011;33994;50.998;5.864;2023-11-21T00:12:41;31.90;;;16.58;;
48203;SDS011;33994;50.998;5.864;2023-11-21T00:15:45;29.65;;;16.02;;
48203;SDS011;33994;50.998;5.864;2023-11-21T00:18:48;31.75;;;16.23;;
48203;SDS011;33994;50.998;5.864;2023-11-21T00:21:51;29.02;;;15.93;;
48203;SDS011;33994;50.998;5.864;2023-11-21T00:24:54;29.02;;;16.20;;
48203;SDS011;33994;50.998;5.864;2023-11-21T00:27:59;27.45;;;16.33;;
48203;SDS011;33994;50.998;5.864;2023-11-21T00:31:02;28.90;;;17.02;;
48203;SDS011;33994;50.998;5.864;2023-11-21T00:34:05;28.58;;;16.70;;
48203;SDS011;33994;50.998;5.864;2023-11-21T00:37:09;36.58;;;18.05;;
48203;SDS011;33994;50.998;5.864;2023-11-21T00:40:12;32.70;;;17.73;;
48203;SDS011;33994;50.998;5.864;2023-11-21T00:43:16;34.75;;;17.83;;
48203;SDS011;33994;50.998;5.864;2023-11-21T00:46:19;38.10;;;18.85;;
48203;SDS011;33994;50.998;5.864;2023-11-21T00:49:22;38.58;;;19.25;;
48203;SDS011;33994;50.998;5.864;2023-11-21T00:52:26;35.83;;;19.35;;
48203;SDS011;33994;50.998;5.864;2023-11-21T00:55:29;34.60;;;18.75;;
48203;SDS011;33994;50.998;5.864;2023-11-21T00:58:33;35.97;;;18.63;;
48203;SDS011;33994;50.998;5.864;2023-11-21T01:01:37;46.03;;;20.45;;
48203;SDS011;33994;50.998;5.864;2023-11-21T01:04:40;43.17;;;19.77;;
48203;SDS011;33994;50.998;5.864;2023-11-21T01:07:43;39.38;;;19.90;;
48203;SDS011;33994;50.998;5.864;2023-11-21T01:10:46;45.03;;;19.73;;
48203;SDS011;33994;50.998;5.864;2023-11-21T01:13:51;41.13;;;19.08;;
48203;SDS011;33994;50.998;5.864;2023-11-21T01:16:54;44.53;;;18.55;;
48203;SDS011;33994;50.998;5.864;2023-11-21T01:19:57;43.55;;;19.63;;
48203;SDS011;33994;50.998;5.864;2023-11-21T01:23:00;38.83;;;19.77;;
48203;SDS011;33994;50.998;5.864;2023-11-21T01:26:04;42.03;;;20.77;;
48203;SDS011;33994;50.998;5.864;2023-11-21T01:29:09;52.15;;;22.10;;
48203;SDS011;33994;50.998;5.864;2023-11-21T01:32:12;42.35;;;20.00;;
48203;SDS011;33994;50.998;5.864;2023-11-21T01:35:15;45.60;;;19.17;;
48203;SDS011;33994;50.998;5.864;2023-11-21T01:38:18;39.97;;;19.33;;
48203;SDS011;33994;50.998;5.864;2023-11-21T01:41:21;41.55;;;19.55;;
48203;SDS011;33994;50.998;5.864;2023-11-21T01:44:26;46.83;;;22.48;;
48203;SDS011;33994;50.998;5.864;2023-11-21T01:47:29;46.67;;;20.98;;
48203;SDS011;33994;50.998;5.864;2023-11-21T01:50:32;41.70;;;20.17;;
48203;SDS011;33994;50.998;5.864;2023-11-21T01:53:36;44.75;;;19.77;;
48203;SDS011;33994;50.998;5.864;2023-11-21T01:56:39;38.50;;;19.63;;
48203;SDS011;33994;50.998;5.864;2023-11-21T01:59:44;43.08;;;20.52;;
48203;SDS011;33994;50.998;5.864;2023-11-21T02:02:48;50.83;;;22.58;;
48203;SDS011;33994;50.998;5.864;2023-11-21T02:05:51;50.40;;;21.75;;
48203;SDS011;33994;50.998;5.864;2023-11-21T02:08:54;46.85;;;20.30;;
48203;SDS011;33994;50.998;5.864;2023-11-21T02:11:57;41.53;;;19.70;;
48203;SDS011;33994;50.998;5.864;2023-11-21T02:15:02;46.45;;;20.38;;
48203;SDS011;33994;50.998;5.864;2023-11-21T02:18:05;49.28;;;20.42;;
48203;SDS011;33994;50.998;5.864;2023-11-21T02:21:09;42.92;;;20.88;;
48203;SDS011;33994;50.998;5.864;2023-11-21T02:24:13;43.75;;;19.85;;
48203;SDS011;33994;50.998;5.864;2023-11-21T02:27:16;42.83;;;20.45;;
48203;SDS011;33994;50.998;5.864;2023-11-21T02:30:20;52.08;;;21.83;;
48203;SDS011;33994;50.998;5.864;2023-11-21T02:33:23;38.47;;;17.42;;
48203;SDS011;33994;50.998;5.864;2023-11-21T02:36:26;39.95;;;19.92;;
48203;SDS011;33994;50.998;5.864;2023-11-21T02:39:31;43.20;;;21.65;;
48203;SDS011;33994;50.998;5.864;2023-11-21T02:42:34;44.40;;;21.25;;
48203;SDS011;33994;50.998;5.864;2023-11-21T02:45:37;41.45;;;19.42;;
48203;SDS011;33994;50.998;5.864;2023-11-21T02:48:40;45.95;;;20.63;;
48203;SDS011;33994;50.998;5.864;2023-11-21T02:51:43;42.10;;;20.25;;
48203;SDS011;33994;50.998;5.864;2023-11-21T02:54:48;47.25;;;19.35;;
48203;SDS011;33994;50.998;5.864;2023-11-21T02:57:51;41.60;;;19.30;;
48203;SDS011;33994;50.998;5.864;2023-11-21T03:00:54;39.97;;;19.58;;
48203;SDS011;33994;50.998;5.864;2023-11-21T03:03:58;40.13;;;18.42;;
48203;SDS011;33994;50.998;5.864;2023-11-21T03:07:01;44.35;;;20.08;;
48203;SDS011;33994;50.998;5.864;2023-11-21T03:10:06;39.85;;;18.92;;
48203;SDS011;33994;50.998;5.864;2023-11-21T03:13:10;36.80;;;17.45;;
48203;SDS011;33994;50.998;5.864;2023-11-21T03:16:14;39.95;;;17.52;;
48203;SDS011;33994;50.998;5.864;2023-11-21T03:19:18;39.72;;;18.88;;
48203;SDS011;33994;50.998;5.864;2023-11-21T03:22:21;41.40;;;18.58;;
48203;SDS011;33994;50.998;5.864;2023-11-21T03:25:25;50.42;;;21.45;;
48203;SDS011;33994;50.998;5.864;2023-11-21T03:28:28;42.15;;;18.05;;
48203;SDS011;33994;50.998;5.864;2023-11-21T03:31:31;39.45;;;17.90;;
48203;SDS011;33994;50.998;5.864;2023-11-21T03:34:34;39.50;;;18.33;;
48203;SDS011;33994;50.998;5.864;2023-11-21T03:37:38;48.47;;;19.58;;
48203;SDS011;33994;50.998;5.864;2023-11-21T03:40:42;41.63;;;18.30;;
48203;SDS011;33994;50.998;5.864;2023-11-21T03:43:45;44.63;;;19.88;;
48203;SDS011;33994;50.998;5.864;2023-11-21T03:46:48;46.45;;;20.50;;
48203;SDS011;33994;50.998;5.864;2023-11-21T03:49:51;48.38;;;20.10;;
48203;SDS011;33994;50.998;5.864;2023-11-21T03:52:54;42.72;;;19.25;;
48203;SDS011;33994;50.998;5.864;2023-11-21T03:55:59;44.40;;;19.45;;
48203;SDS011;33994;50.998;5.864;2023-11-21T03:59:05;41.17;;;19.38;;
48203;SDS011;33994;50.998;5.864;2023-11-21T04:02:08;38.28;;;17.67;;
48203;SDS011;33994;50.998;5.864;2023-11-21T04:05:11;39.22;;;17.88;;
48203;SDS011;33994;50.998;5.864;2023-11-21T04:08:15;43.30;;;17.83;;
48203;SDS011;33994;50.998;5.864;2023-11-21T04:11:19;41.63;;;18.15;;
48203;SDS011;33994;50.998;5.864;2023-11-21T04:14:23;45.95;;;18.63;;
48203;SDS011;33994;50.998;5.864;2023-11-21T04:17:27;41.35;;;18.45;;
48203;SDS011;33994;50.998;5.864;2023-11-21T04:20:30;50.05;;;20.98;;
48203;SDS011;33994;50.998;5.864;2023-11-21T04:23:33;49.25;;;19.17;;
48203;SDS011;33994;50.998;5.864;2023-11-21T04:26:38;50.88;;;21.23;;
48203;SDS011;33994;50.998;5.864;2023-11-21T04:29:42;47.45;;;20.33;;
48203;SDS011;33994;50.998;5.864;2023-11-21T04:32:45;55.03;;;20.70;;
48203;SDS011;33994;50.998;5.864;2023-11-21T04:35:48;50.03;;;19.90;;
48203;SDS011;33994;50.998;5.864;2023-11-21T04:38:51;52.15;;;21.35;;
48203;SDS011;33994;50.998;5.864;2023-11-21T04:41:56;59.30;;;22.60;;
48203;SDS011;33994;50.998;5.864;2023-11-21T04:44:59;61.15;;;24.63;;
48203;SDS011;33994;50.998;5.864;2023-11-21T04:48:02;57.30;;;22.45;;
48203;SDS011;33994;50.998;5.864;2023-11-21T04:51:06;64.97;;;22.65;;
48203;SDS011;33994;50.998;5.864;2023-11-21T04:54:09;60.05;;;23.63;;
48203;SDS011;33994;50.998;5.864;2023-11-21T04:57:14;67.65;;;24.88;;
48203;SDS011;33994;50.998;5.864;2023-11-21T05:00:17;69.47;;;22.60;;
48203;SDS011;33994;50.998;5.864;2023-11-21T05:03:20;59.08;;;22.85;;
48203;SDS011;33994;50.998;5.864;2023-11-21T05:06:23;62.88;;;23.33;;
48203;SDS011;33994;50.998;5.864;2023-11-21T05:09:27;59.45;;;20.98;;
48203;SDS011;33994;50.998;5.864;2023-11-21T05:12:32;63.70;;;21.25;;
48203;SDS011;33994;50.998;5.864;2023-11-21T05:15:34;62.78;;;21.90;;
48203;SDS011;33994;50.998;5.864;2023-11-21T05:18:37;68.10;;;20.73;;
48203;SDS011;33994;50.998;5.864;2023-11-21T05:21:41;74.38;;;22.58;;
48203;SDS011;33994;50.998;5.864;2023-11-21T05:24:44;61.20;;;20.88;;
48203;SDS011;33994;50.998;5.864;2023-11-21T05:27:49;74.35;;;22.88;;
48203;SDS011;33994;50.998;5.864;2023-11-21T05:30:52;81.45;;;24.20;;
48203;SDS011;33994;50.998;5.864;2023-11-21T05:33:55;70.90;;;22.45;;
48203;SDS011;33994;50.998;5.864;2023-11-21T05:36:59;80.53;;;23.17;;
48203;SDS011;33994;50.998;5.864;2023-11-21T05:40:02;77.68;;;22.48;;
48203;SDS011;33994;50.998;5.864;2023-11-21T05:43:07;84.35;;;24.05;;
48203;SDS011;33994;50.998;5.864;2023-11-21T05:46:10;71.28;;;21.42;;
48203;SDS011;33994;50.998;5.864;2023-11-21T05:49:13;75.10;;;21.10;;
48203;SDS011;33994;50.998;5.864;2023-11-21T05:52:16;69.65;;;21.25;;
48203;SDS011;33994;50.998;5.864;2023-11-21T05:55:22;77.82;;;22.58;;
48203;SDS011;33994;50.998;5.864;2023-11-21T05:58:27;71.43;;;21.63;;
48203;SDS011;33994;50.998;5.864;2023-11-21T06:01:30;83.72;;;23.63;;
48203;SDS011;33994;50.998;5.864;2023-11-21T06:04:33;81.35;;;23.33;;
48203;SDS011;33994;50.998;5.864;2023-11-21T06:07:36;85.72;;;23.13;;
48203;SDS011;33994;50.998;5.864;2023-11-21T06:10:40;74.05;;;21.98;;
48203;SDS011;33994;50.998;5.864;2023-11-21T06:13:45;76.72;;;20.38;;
48203;SDS011;33994;50.998;5.864;2023-11-21T06:16:47;76.57;;;21.50;;
48203;SDS011;33994;50.998;5.864;2023-11-21T06:19:51;81.60;;;22.88;;
48203;SDS011;33994;50.998;5.864;2023-11-21T06:22:54;77.10;;;20.42;;
48203;SDS011;33994;50.998;5.864;2023-11-21T06:25:57;73.60;;;22.52;;
48203;SDS011;33994;50.998;5.864;2023-11-21T06:29:02;67.65;;;20.48;;
48203;SDS011;33994;50.998;5.864;2023-11-21T06:32:05;70.32;;;20.55;;
48203;SDS011;33994;50.998;5.864;2023-11-21T06:35:09;73.22;;;21.20;;
48203;SDS011;33994;50.998;5.864;2023-11-21T06:38:12;75.35;;;22.95;;
48203;SDS011;33994;50.998;5.864;2023-11-21T06:41:15;80.85;;;22.15;;
48203;SDS011;33994;50.998;5.864;2023-11-21T06:44:20;73.47;;;22.48;;
48203;SDS011;33994;50.998;5.864;2023-11-21T06:47:23;79.80;;;23.33;;
48203;SDS011;33994;50.998;5.864;2023-11-21T06:50:26;84.57;;;24.88;;
48203;SDS011;33994;50.998;5.864;2023-11-21T06:53:29;81.43;;;23.00;;
48203;SDS011;33994;50.998;5.864;2023-11-21T06:56:32;79.32;;;24.35;;
48203;SDS011;33994;50.998;5.864;2023-11-21T06:59:37;73.15;;;20.45;;
48203;SDS011;33994;50.998;5.864;2023-11-21T07:02:40;83.20;;;23.88;;
48203;SDS011;33994;50.998;5.864;2023-11-21T07:05:43;72.15;;;21.75;;
48203;SDS011;33994;50.998;5.864;2023-11-21T07:08:46;72.68;;;23.23;;
48203;SDS011;33994;50.998;5.864;2023-11-21T07:11:49;81.32;;;25.65;;
48203;SDS011;33994;50.998;5.864;2023-11-21T07:14:54;79.95;;;24.10;;
48203;SDS011;33994;50.998;5.864;2023-11-21T07:17:57;76.93;;;23.40;;
48203;SDS011;33994;50.998;5.864;2023-11-21T07:21:00;69.28;;;23.13;;
48203;SDS011;33994;50.998;5.864;2023-11-21T07:24:04;73.97;;;22.33;;
48203;SDS011;33994;50.998;5.864;2023-11-21T07:27:08;78.60;;;24.80;;
48203;SDS011;33994;50.998;5.864;2023-11-21T07:30:13;80.93;;;24.45;;
48203;SDS011;33994;50.998;5.864;2023-11-21T07:33:16;76.32;;;23.42;;
48203;SDS011;33994;50.998;5.864;2023-11-21T07:36:20;78.40;;;25.23;;
48203;SDS011;33994;50.998;5.864;2023-11-21T07:39:23;70.85;;;23.75;;
48203;SDS011;33994;50.998;5.864;2023-11-21T07:42:26;72.90;;;25.08;;
48203;SDS011;33994;50.998;5.864;2023-11-21T07:45:31;79.18;;;26.85;;
48203;SDS011;33994;50.998;5.864;2023-11-21T07:48:34;81.78;;;24.92;;
48203;SDS011;33994;50.998;5.864;2023-11-21T07:51:38;80.22;;;24.08;;
48203;SDS011;33994;50.998;5.864;2023-11-21T07:54:41;92.40;;;26.02;;
48203;SDS011;33994;50.998;5.864;2023-11-21T07:57:44;84.63;;;24.77;;
48203;SDS011;33994;50.998;5.864;2023-11-21T08:00:49;78.68;;;23.88;;
48203;SDS011;33994;50.998;5.864;2023-11-21T08:03:52;85.82;;;23.70;;
48203;SDS011;33994;50.998;5.864;2023-11-21T08:06:55;82.68;;;23.67;;
48203;SDS011;33994;50.998;5.864;2023-11-21T08:09:58;82.25;;;25.38;;
48203;SDS011;33994;50.998;5.864;2023-11-21T08:13:02;90.93;;;25.40;;
48203;SDS011;33994;50.998;5.864;2023-11-21T08:16:07;91.65;;;26.05;;
48203;SDS011;33994;50.998;5.864;2023-11-21T08:19:10;84.15;;;26.05;;
48203;SDS011;33994;50.998;5.864;2023-11-21T08:22:13;83.68;;;26.10;;
48203;SDS011;33994;50.998;5.864;2023-11-21T08:25:17;83.15;;;26.17;;
48203;SDS011;33994;50.998;5.864;2023-11-21T08:28:20;85.57;;;25.55;;
48203;SDS011;33994;50.998;5.864;2023-11-21T08:31:25;95.93;;;26.80;;
48203;SDS011;33994;50.998;5.864;2023-11-21T08:34:28;76.25;;;24.60;;
48203;SDS011;33994;50.998;5.864;2023-11-21T08:37:31;81.43;;;25.83;;
48203;SDS011;33994;50.998;5.864;2023-11-21T08:40:34;81.47;;;24.35;;
48203;SDS011;33994;50.998;5.864;2023-11-21T08:43:37;81.15;;;25.40;;
48203;SDS011;33994;50.998;5.864;2023-11-21T08:46:42;104.30;;;31.17;;
48203;SDS011;33994;50.998;5.864;2023-11-21T08:49:45;91.22;;;28.95;;
48203;SDS011;33994;50.998;5.864;2023-11-21T08:52:48;100.07;;;30.52;;
48203;SDS011;33994;50.998;5.864;2023-11-21T08:55:51;90.40;;;30.42;;
48203;SDS011;33994;50.998;5.864;2023-11-21T08:58:54;90.43;;;29.10;;
48203;SDS011;33994;50.998;5.864;2023-11-21T09:01:59;97.32;;;30.92;;
48203;SDS011;33994;50.998;5.864;2023-11-21T09:05:02;84.28;;;25.52;;
48203;SDS011;33994;50.998;5.864;2023-11-21T09:08:06;77.32;;;24.02;;
48203;SDS011;33994;50.998;5.864;2023-11-21T09:11:09;75.80;;;21.92;;
48203;SDS011;33994;50.998;5.864;2023-11-21T09:14:12;72.80;;;23.20;;
48203;SDS011;33994;50.998;5.864;2023-11-21T09:17:17;67.63;;;20.92;;
48203;SDS011;33994;50.998;5.864;2023-11-21T09:20:20;63.20;;;19.88;;
48203;SDS011;33994;50.998;5.864;2023-11-21T09:23:23;59.67;;;19.30;;
48203;SDS011;33994;50.998;5.864;2023-11-21T09:26:26;61.47;;;20.95;;
48203;SDS011;33994;50.998;5.864;2023-11-21T09:29:29;66.72;;;20.55;;
48203;SDS011;33994;50.998;5.864;2023-11-21T09:32:34;70.80;;;23.10;;
48203;SDS011;33994;50.998;5.864;2023-11-21T09:35:37;72.03;;;22.45;;
48203;SDS011;33994;50.998;5.864;2023-11-21T09:38:40;76.93;;;24.83;;
48203;SDS011;33994;50.998;5.864;2023-11-21T09:41:44;75.75;;;26.70;;
48203;SDS011;33994;50.998;5.864;2023-11-21T09:44:53;84.63;;;25.58;;
48203;SDS011;33994;50.998;5.864;2023-11-21T09:48:03;78.65;;;24.45;;
48203;SDS011;33994;50.998;5.864;2023-11-21T09:51:07;90.70;;;24.85;;
48203;SDS011;33994;50.998;5.864;2023-11-21T09:54:11;82.25;;;23.95;;
48203;SDS011;33994;50.998;5.864;2023-11-21T09:57:18;82.30;;;24.02;;
48203;SDS011;33994;50.998;5.864;2023-11-21T10:00:22;80.03;;;22.55;;
48203;SDS011;33994;50.998;5.864;2023-11-21T10:03:26;79.35;;;23.77;;
48203;SDS011;33994;50.998;5.864;2023-11-21T10:06:30;79.03;;;21.83;;
48203;SDS011;33994;50.998;5.864;2023-11-21T10:09:34;81.22;;;22.08;;
48203;SDS011;33994;50.998;5.864;2023-11-21T10:12:38;79.63;;;23.35;;
48203;SDS011;33994;50.998;5.864;2023-11-21T10:15:42;75.75;;;21.30;;
48203;SDS011;33994;50.998;5.864;2023-11-21T10:18:48;82.75;;;23.23;;
48203;SDS011;33994;50.998;5.864;2023-11-21T10:21:54;80.65;;;21.08;;
48203;SDS011;33994;50.998;5.864;2023-11-21T10:24:58;68.75;;;20.05;;
48203;SDS011;33994;50.998;5.864;2023-11-21T10:28:01;71.43;;;19.55;;
48203;SDS011;33994;50.998;5.864;2023-11-21T10:31:06;63.45;;;19.20;;
48203;SDS011;33994;50.998;5.864;2023-11-21T10:34:15;60.72;;;18.05;;
48203;SDS011;33994;50.998;5.864;2023-11-21T10:37:19;65.28;;;21.98;;
48203;SDS011;33994;50.998;5.864;2023-11-21T10:40:22;72.18;;;21.67;;
48203;SDS011;33994;50.998;5.864;2023-11-21T10:43:25;53.83;;;19.38;;
48203;SDS011;33994;50.998;5.864;2023-11-21T10:46:28;61.85;;;20.42;;
48203;SDS011;33994;50.998;5.864;2023-11-21T10:49:33;55.15;;;19.20;;
48203;SDS011;33994;50.998;5.864;2023-11-21T10:52:36;67.13;;;21.58;;
48203;SDS011;33994;50.998;5.864;2023-11-21T10:55:39;65.97;;;21.42;;
48203;SDS011;33994;50.998;5.864;2023-11-21T10:58:43;70.30;;;23.23;;
48203;SDS011;33994;50.998;5.864;2023-11-21T11:01:46;82.55;;;26.55;;
48203;SDS011;33994;50.998;5.864;2023-11-21T11:04:51;84.22;;;28.80;;
48203;SDS011;33994;50.998;5.864;2023-11-21T11:07:57;88.93;;;29.27;;
48203;SDS011;33994;50.998;5.864;2023-11-21T11:11:02;86.72;;;29.15;;
48203;SDS011;33994;50.998;5.864;2023-11-21T11:14:05;80.82;;;25.52;;
48203;SDS011;33994;50.998;5.864;2023-11-21T11:17:08;73.28;;;20.90;;
48203;SDS011;33994;50.998;5.864;2023-11-21T11:20:14;67.13;;;20.35;;
48203;SDS011;33994;50.998;5.864;2023-11-21T11:23:28;74.65;;;20.58;;
48203;SDS011;33994;50.998;5.864;2023-11-21T11:26:42;75.85;;;20.63;;
48203;SDS011;33994;50.998;5.864;2023-11-21T11:29:52;67.18;;;20.25;;
48203;SDS011;33994;50.998;5.864;2023-11-21T11:33:14;71.43;;;21.67;;
48203;SDS011;33994;50.998;5.864;2023-11-21T11:36:31;77.20;;;22.60;;
48203;SDS011;33994;50.998;5.864;2023-11-21T11:39:40;75.28;;;24.75;;
48203;SDS011;33994;50.998;5.864;2023-11-21T11:42:54;85.07;;;26.10;;
48203;SDS011;33994;50.998;5.864;2023-11-21T11:45:59;68.47;;;22.30;;
48203;SDS011;33994;50.998;5.864;2023-11-21T11:49:05;71.80;;;22.20;;
48203;SDS011;33994;50.998;5.864;2023-11-21T11:55:37;73.63;;;21.95;;
48203;SDS011;33994;50.998;5.864;2023-11-21T11:58:40;69.63;;;20.55;;
48203;SDS011;33994;50.998;5.864;2023-11-21T12:01:44;63.90;;;20.13;;
48203;SDS011;33994;50.998;5.864;2023-11-21T12:04:49;58.85;;;18.83;;
48203;SDS011;33994;50.998;5.864;2023-11-21T12:07:54;68.60;;;20.77;;
48203;SDS011;33994;50.998;5.864;2023-11-21T12:10:58;68.88;;;21.10;;
48203;SDS011;33994;50.998;5.864;2023-11-21T12:14:01;75.68;;;20.83;;
48203;SDS011;33994;50.998;5.864;2023-11-21T12:17:06;63.42;;;20.30;;
48203;SDS011;33994;50.998;5.864;2023-11-21T12:20:10;72.07;;;21.48;;
48203;SDS011;33994;50.998;5.864;2023-11-21T12:23:15;68.68;;;20.75;;
48203;SDS011;33994;50.998;5.864;2023-11-21T12:26:19;69.07;;;21.25;;
48203;SDS011;33994;50.998;5.864;2023-11-21T12:29:22;61.90;;;20.45;;
48203;SDS011;33994;50.998;5.864;2023-11-21T12:32:25;61.97;;;19.20;;
48203;SDS011;33994;50.998;5.864;2023-11-21T12:35:29;59.85;;;20.88;;
48203;SDS011;33994;50.998;5.864;2023-11-21T12:38:34;66.47;;;20.65;;
48203;SDS011;33994;50.998;5.864;2023-11-21T12:41:38;65.32;;;20.50;;
48203;SDS011;33994;50.998;5.864;2023-11-21T12:44:41;61.50;;;20.23;;
48203;SDS011;33994;50.998;5.864;2023-11-21T12:47:44;59.28;;;20.55;;
48203;SDS011;33994;50.998;5.864;2023-11-21T12:50:47;60.85;;;19.45;;
48203;SDS011;33994;50.998;5.864;2023-11-21T12:53:52;53.42;;;17.40;;
48203;SDS011;33994;50.998;5.864;2023-11-21T12:56:58;49.40;;;17.10;;
48203;SDS011;33994;50.998;5.864;2023-11-21T13:00:02;53.90;;;16.80;;
48203;SDS011;33994;50.998;5.864;2023-11-21T13:03:07;54.17;;;17.45;;
48203;SDS011;33994;50.998;5.864;2023-11-21T13:06:11;52.92;;;16.52;;
48203;SDS011;33994;50.998;5.864;2023-11-21T13:09:16;47.63;;;15.55;;
48203;SDS011;33994;50.998;5.864;2023-11-21T13:12:23;47.78;;;15.40;;
48203;SDS011;33994;50.998;5.864;2023-11-21T13:15:26;40.33;;;14.25;;
48203;SDS011;33994;50.998;5.864;2023-11-21T13:18:30;39.75;;;14.35;;
48203;SDS011;33994;50.998;5.864;2023-11-21T13:21:34;40.28;;;14.63;;
48203;SDS011;33994;50.998;5.864;2023-11-21T13:24:38;39.70;;;14.07;;
48203;SDS011;33994;50.998;5.864;2023-11-21T13:27:41;44.38;;;16.13;;
48203;SDS011;33994;50.998;5.864;2023-11-21T13:30:45;37.30;;;13.20;;
48203;SDS011;33994;50.998;5.864;2023-11-21T13:33:48;34.00;;;13.52;;
48203;SDS011;33994;50.998;5.864;2023-11-21T13:36:51;40.05;;;14.60;;
48203;SDS011;33994;50.998;5.864;2023-11-21T13:39:56;38.72;;;15.40;;
48203;SDS011;33994;50.998;5.864;2023-11-21T13:42:59;41.25;;;15.98;;
48203;SDS011;33994;50.998;5.864;2023-11-21T13:46:02;39.53;;;15.57;;
48203;SDS011;33994;50.998;5.864;2023-11-21T13:49:05;49.15;;;17.60;;
48203;SDS011;33994;50.998;5.864;2023-11-21T13:52:08;35.50;;;15.45;;
48203;SDS011;33994;50.998;5.864;2023-11-21T13:55:13;44.90;;;17.65;;
48203;SDS011;33994;50.998;5.864;2023-11-21T13:58:16;41.88;;;16.60;;
48203;SDS011;33994;50.998;5.864;2023-11-21T14:01:20;44.97;;;17.88;;
48203;SDS011;33994;50.998;5.864;2023-11-21T14:04:24;45.70;;;17.75;;
48203;SDS011;33994;50.998;5.864;2023-11-21T14:07:28;45.80;;;19.40;;
48203;SDS011;33994;50.998;5.864;2023-11-21T14:10:32;40.80;;;15.88;;
48203;SDS011;33994;50.998;5.864;2023-11-21T14:13:36;44.50;;;16.88;;
48203;SDS011;33994;50.998;5.864;2023-11-21T14:16:39;43.03;;;16.10;;
48203;SDS011;33994;50.998;5.864;2023-11-21T14:19:42;39.60;;;14.45;;
48203;SDS011;33994;50.998;5.864;2023-11-21T14:22:45;40.15;;;16.73;;
48203;SDS011;33994;50.998;5.864;2023-11-21T14:25:50;35.92;;;14.10;;
48203;SDS011;33994;50.998;5.864;2023-11-21T14:28:53;39.28;;;14.75;;
48203;SDS011;33994;50.998;5.864;2023-11-21T14:31:56;43.42;;;17.20;;
48203;SDS011;33994;50.998;5.864;2023-11-21T14:34:59;40.97;;;15.65;;
48203;SDS011;33994;50.998;5.864;2023-11-21T14:38:02;37.08;;;15.18;;
48203;SDS011;33994;50.998;5.864;2023-11-21T14:41:07;33.92;;;15.32;;
48203;SDS011;33994;50.998;5.864;2023-11-21T14:44:09;43.97;;;17.67;;
48203;SDS011;33994;50.998;5.864;2023-11-21T14:47:13;38.25;;;16.48;;
48203;SDS011;33994;50.998;5.864;2023-11-21T14:50:16;38.80;;;15.90;;
48203;SDS011;33994;50.998;5.864;2023-11-21T14:53:19;33.17;;;15.65;;
48203;SDS011;33994;50.998;5.864;2023-11-21T14:56:23;35.13;;;14.65;;
48203;SDS011;33994;50.998;5.864;2023-11-21T14:59:27;33.88;;;14.80;;
48203;SDS011;33994;50.998;5.864;2023-11-21T15:02:30;33.78;;;14.40;;
48203;SDS011;33994;50.998;5.864;2023-11-21T15:05:33;28.40;;;13.88;;
48203;SDS011;33994;50.998;5.864;2023-11-21T15:08:35;35.95;;;14.35;;
48203;SDS011;33994;50.998;5.864;2023-11-21T15:11:40;35.60;;;14.63;;
48203;SDS011;33994;50.998;5.864;2023-11-21T15:14:43;28.75;;;12.40;;
48203;SDS011;33994;50.998;5.864;2023-11-21T15:17:47;30.77;;;13.93;;
48203;SDS011;33994;50.998;5.864;2023-11-21T15:20:50;29.85;;;12.95;;
48203;SDS011;33994;50.998;5.864;2023-11-21T15:23:53;28.38;;;12.07;;
48203;SDS011;33994;50.998;5.864;2023-11-21T15:26:58;29.40;;;12.70;;
48203;SDS011;33994;50.998;5.864;2023-11-21T15:30:01;27.08;;;11.98;;
48203;SDS011;33994;50.998;5.864;2023-11-21T15:33:04;27.73;;;12.70;;
48203;SDS011;33994;50.998;5.864;2023-11-21T15:36:08;33.58;;;12.15;;
48203;SDS011;33994;50.998;5.864;2023-11-21T15:39:11;28.70;;;12.15;;
48203;SDS011;33994;50.998;5.864;2023-11-21T15:42:16;28.13;;;12.82;;
48203;SDS011;33994;50.998;5.864;2023-11-21T15:45:19;26.85;;;12.45;;
48203;SDS011;33994;50.998;5.864;2023-11-21T15:48:22;24.38;;;11.25;;
48203;SDS011;33994;50.998;5.864;2023-11-21T15:51:25;23.65;;;10.35;;
48203;SDS011;33994;50.998;5.864;2023-11-21T15:54:29;19.05;;;9.95;;
48203;SDS011;33994;50.998;5.864;2023-11-21T15:57:33;19.38;;;9.50;;
48203;SDS011;33994;50.998;5.864;2023-11-21T16:00:37;19.55;;;8.63;;
48203;SDS011;33994;50.998;5.864;2023-11-21T16:03:40;15.82;;;8.48;;
48203;SDS011;33994;50.998;5.864;2023-11-21T16:06:44;18.30;;;9.35;;
48203;SDS011;33994;50.998;5.864;2023-11-21T16:09:47;17.10;;;9.82;;
48203;SDS011;33994;50.998;5.864;2023-11-21T16:12:52;16.95;;;8.82;;
48203;SDS011;33994;50.998;5.864;2023-11-21T16:15:55;16.33;;;9.40;;
48203;SDS011;33994;50.998;5.864;2023-11-21T16:18:58;18.55;;;10.02;;
48203;SDS011;33994;50.998;5.864;2023-11-21T16:22:01;16.55;;;9.93;;
48203;SDS011;33994;50.998;5.864;2023-11-21T16:25:04;20.50;;;10.85;;
48203;SDS011;33994;50.998;5.864;2023-11-21T16:28:10;21.10;;;11.10;;
48203;SDS011;33994;50.998;5.864;2023-11-21T16:31:13;19.90;;;11.13;;
48203;SDS011;33994;50.998;5.864;2023-11-21T16:34:24;23.35;;;12.35;;
48203;SDS011;33994;50.998;5.864;2023-11-21T16:37:27;20.25;;;12.02;;
48203;SDS011;33994;50.998;5.864;2023-11-21T16:40:30;26.98;;;14.05;;
48203;SDS011;33994;50.998;5.864;2023-11-21T16:43:34;26.23;;;13.20;;
48203;SDS011;33994;50.998;5.864;2023-11-21T16:46:37;26.45;;;15.88;;
48203;SDS011;33994;50.998;5.864;2023-11-21T16:49:40;27.40;;;15.35;;
48203;SDS011;33994;50.998;5.864;2023-11-21T16:52:43;26.00;;;14.70;;
48203;SDS011;33994;50.998;5.864;2023-11-21T16:55:46;30.02;;;15.55;;
48203;SDS011;33994;50.998;5.864;2023-11-21T16:58:51;31.17;;;17.67;;
48203;SDS011;33994;50.998;5.864;2023-11-21T17:01:54;35.42;;;16.80;;
48203;SDS011;33994;50.998;5.864;2023-11-21T17:04:58;33.83;;;17.30;;
48203;SDS011;33994;50.998;5.864;2023-11-21T17:08:01;36.35;;;18.52;;
48203;SDS011;33994;50.998;5.864;2023-11-21T17:11:04;38.67;;;19.52;;
48203;SDS011;33994;50.998;5.864;2023-11-21T17:14:09;37.40;;;18.35;;
48203;SDS011;33994;50.998;5.864;2023-11-21T17:17:12;35.05;;;18.08;;
48203;SDS011;33994;50.998;5.864;2023-11-21T17:20:15;34.45;;;17.83;;
48203;SDS011;33994;50.998;5.864;2023-11-21T17:23:18;38.92;;;18.50;;
48203;SDS011;33994;50.998;5.864;2023-11-21T17:26:21;37.42;;;17.63;;
48203;SDS011;33994;50.998;5.864;2023-11-21T17:29:26;38.28;;;18.75;;
48203;SDS011;33994;50.998;5.864;2023-11-21T17:32:29;35.63;;;18.00;;
48203;SDS011;33994;50.998;5.864;2023-11-21T17:35:32;36.58;;;18.20;;
48203;SDS011;33994;50.998;5.864;2023-11-21T17:38:35;35.50;;;17.75;;
48203;SDS011;33994;50.998;5.864;2023-11-21T17:41:39;42.83;;;18.73;;
48203;SDS011;33994;50.998;5.864;2023-11-21T17:44:43;37.40;;;18.58;;
48203;SDS011;33994;50.998;5.864;2023-11-21T17:47:47;38.65;;;18.05;;
48203;SDS011;33994;50.998;5.864;2023-11-21T17:50:50;33.45;;;16.02;;
48203;SDS011;33994;50.998;5.864;2023-11-21T17:53:53;29.90;;;15.70;;
48203;SDS011;33994;50.998;5.864;2023-11-21T17:56:56;34.85;;;16.25;;